• Join FlightAware (Why Join?)
  • Login
  • US Flag 
11:50AM EST


 

Airport Tracker/Info


-or-


 

Live Flight TrackerFlight Track Log ✈ EJA396 ✈ 04-May-2014 ✈ KHND - KAPC

Flight Track Log - Related Links

Times and Time Zones

All times are in EDT time to prevent confusion due to time zone crossing. See the EJA396 flight status page for this flight to view local times or setup timezone preferences in your user account.

Time Position Orientation Groundspeed Altitude Reporting Facility
EDT Latitude Longitude Course Direction KTS MPH feet Rate Location/Type
03:28PM 35.9567 -115.1358 203° Southwest 203 234 3,500  Level Los Angeles Center
03:29PM 35.9297 -115.1500 203° Southwest 210 242 5,400 3,060 Climbing Los Angeles Center
03:30PM 35.8911 -115.1617 194° South 239 275 7,000 1,560 Climbing Los Angeles Center
03:30PM 35.8625 -115.1589 176° South 270 311 7,000  Level Los Angeles Center
03:31PM 35.8200 -115.1575 178° South 258 297 7,000 480 Level Los Angeles Center
03:31PM 35.7942 -115.1628 189° South 246 283 7,500 1,920 Climbing Los Angeles Center
03:32PM 35.7556 -115.1914 211° Southwest 255 293 9,000 1,680 Climbing Los Angeles Center
03:33PM 35.7078 -115.2494 225° Southwest 272 313 10,400 1,140 Climbing Los Angeles Center
03:34PM 35.6964 -115.3592 263° West 274 315 11,400 1,500 Climbing Los Angeles Center
03:35PM 35.6506 -115.4089 221° Southwest 241 277 13,600 2,580 Climbing Los Angeles Center
03:36PM 35.6353 -115.4789 255° West 254 292 16,800 1,860 Climbing Los Angeles Center
03:37PM 35.6892 -115.5683 307° West 311 358 17,500 2,100 Climbing Los Angeles Center
03:38PM 35.7447 -115.6850 300° West 365 420 21,200 3,240 Climbing Los Angeles Center
03:39PM 35.7847 -115.7861 296° West 359 413 24,200 2,820 Climbing Los Angeles Center
03:40PM 35.8375 -115.9106 298° West 362 417 27,100 2,580 Climbing Los Angeles Center
03:41PM 35.8831 -116.0269 296° West 371 427 29,600 2,400 Climbing Los Angeles Center
03:42PM 35.9333 -116.1469 297° West 387 445 32,100 2,400 Climbing Los Angeles Center
03:43PM 35.9825 -116.2667 297° West 388 447 34,600 2,280 Climbing Los Angeles Center
03:44PM 36.0311 -116.3844 297° West 388 447 36,900 1,620 Climbing Los Angeles Center
03:45PM 36.0881 -116.5281 296° West 388 447 38,000 480 Climbing Los Angeles Center
03:46PM 36.1419 -116.6575 297° West 408 470 38,000  Level Los Angeles Center
03:47PM 36.1972 -116.7956 296° West 436 502 38,000  Level Los Angeles Center
03:48PM 36.2506 -116.9281 297° West 437 503 38,000  Level Los Angeles Center
03:49PM 36.3019 -117.0561 297° West 426 490 38,000  Level Los Angeles Center
03:50PM 36.3617 -117.2058 296° West 413 475 38,000  Level Los Angeles Center
03:51PM 36.4125 -117.3342 296° West 413 475 38,000  Level Los Angeles Center
03:52PM 36.4636 -117.4642 296° West 415 478 38,000  Level Los Angeles Center
03:53PM 36.5150 -117.5950 296° West 419 482 38,000  Level Los Angeles Center
03:54PM 36.5653 -117.7250 296° West 419 482 38,000  Level Los Angeles Center
03:55PM 36.6258 -117.8803 296° West 419 482 38,000  Level Los Angeles Center
03:56PM 36.6506 -117.9450 295° West 420 483 38,000  Level Oakland Center
03:57PM 36.7008 -118.0747 296° West 419 482 38,000  Level Oakland Center
03:58PM 36.7500 -118.2022 296° West 412 474 38,000  Level Oakland Center
03:59PM 36.7994 -118.3328 295° West 412 474 38,000  Level Oakland Center
04:00PM 36.8600 -118.4914 296° West 414 476 38,000  Level Oakland Center
04:01PM 36.9025 -118.6061 295° West 418 481 38,000  Level Oakland Center
04:02PM 36.9531 -118.7378 296° West 419 482 38,000  Level Oakland Center
04:03PM 37.0119 -118.8975 295° West 422 486 38,000 -300 Level Oakland Center
04:04PM 37.0586 -119.0283 294° West 419 482 37,400 -840 Descending Oakland Center
04:05PM 37.0881 -119.1600 286° West 398 458 36,400 -720 Descending Oakland Center
04:06PM 37.1178 -119.2931 286° West 398 458 36,000 -240 Descending Oakland Center
04:07PM 37.1469 -119.4261 285° West 398 458 36,000  Level Oakland Center
04:08PM 37.1772 -119.5617 286° West 404 465 36,000  Level Oakland Center
04:09PM 37.2064 -119.6981 285° West 405 466 36,000  Level Oakland Center
04:10PM 37.2369 -119.8397 285° West 405 466 36,000  Level Oakland Center
04:11PM 37.2661 -119.9747 285° West 404 465 36,000  Level Oakland Center
04:12PM 37.3006 -120.1375 285° West 404 465 36,000  Level Oakland Center
04:13PM 37.3294 -120.2703 285° West 400 460 36,000  Level Oakland Center
04:15PM 37.3572 -120.4064 284° West 400 460 36,000  Level Oakland Center
04:16PM 37.3861 -120.5394 285° West 400 460 36,000 -540 Level Oakland Center
04:17PM 37.4139 -120.6756 284° West 399 459 35,000 -1,320 Descending Oakland Center
04:18PM 37.4419 -120.8083 285° West 398 458 33,400 -1,620 Descending Oakland Center
04:19PM 37.4689 -120.9378 285° West 387 445 31,800 -1,740 Descending Oakland Center
04:20PM 37.4964 -121.0706 285° West 387 445 29,900 -2,040 Descending Oakland Center
04:21PM 37.5264 -121.2217 284° West 395 455 27,700 -2,100 Descending Oakland Center
04:22PM 37.5542 -121.3558 285° West 396 456 25,700 -2,040 Descending Oakland Center
04:23PM 37.5833 -121.5000 284° West 400 460 23,500 -1,980 Descending Northern Cal TRACON
04:24PM 37.6167 -121.6333 288° West 385 443 21,700 -2,160 Descending Northern Cal TRACON
04:25PM 37.6333 -121.7500 280° West 362 417 19,200 -2,580 Descending Northern Cal TRACON
04:26PM 37.6600 -121.8883 284° West 357 411 16,500 -2,520 Descending Oakland Center
04:27PM 37.6831 -122.0050 284° West 348 400 14,000 -2,100 Descending Oakland Center
04:28PM 37.7056 -122.1189 284° West 341 392 12,300 -1,200 Descending Oakland Center
04:29PM 37.7517 -122.2150 301° West 334 384 11,600 -840 Descending Oakland Center
04:30PM 37.8172 -122.2931 317° Northwest 324 373 10,600 -1,080 Descending Oakland Center
04:31PM 37.8783 -122.3708 315° West 318 366 9,400 -1,620 Descending Oakland Center
04:32PM 37.9294 -122.4328 316° Northwest 268 308 7,400 -2,400 Descending Oakland Center
04:33PM 38.0000 -122.4706 337° Northwest 269 310 4,500 -2,580 Descending Oakland Center
04:34PM 38.0556 -122.4161 38° Northeast 260 299 2,100 -1,260 Descending Oakland Center
04:35PM 38.1053 -122.3633 40° Northeast 247 284 2,000 -60 Descending Oakland Center
04:36PM 38.1486 -122.3142 42° Northeast 226 260 2,000  Level Oakland Center
04:37PM 38.1717 -122.2697 57° Northeast 181 208 2,000 -300 Level Oakland Center
04:38PM 38.1908 -122.2344 55° Northeast 154 177 1,400 -780 Descending Oakland Center
04:39PM 38.2133 -122.2544 325° Northwest 123 142 400 -1,020 Descending Oakland Center